sensor_id;sensor_type;location;lat;lon;timestamp;pressure;altitude;pressure_sealevel;temperature;humidity
70229;BME280;57617;51.988;5.854;2023-01-30T00:01:31;101281.66;;;7.65;72.94
70229;BME280;57617;51.988;5.854;2023-01-30T00:03:57;101278.94;;;7.65;72.40
70229;BME280;57617;51.988;5.854;2023-01-30T00:06:23;101273.53;;;7.65;72.09
70229;BME280;57617;51.988;5.854;2023-01-30T00:08:48;101270.63;;;7.66;73.17
70229;BME280;57617;51.988;5.854;2023-01-30T00:11:15;101267.28;;;7.64;72.63
70229;BME280;57617;51.988;5.854;2023-01-30T00:13:41;101273.34;;;7.66;73.34
70229;BME280;57617;51.988;5.854;2023-01-30T00:16:08;101241.31;;;7.63;72.65
70229;BME280;57617;51.988;5.854;2023-01-30T00:18:37;101245.66;;;7.71;73.02
70229;BME280;57617;51.988;5.854;2023-01-30T00:21:04;101248.16;;;7.72;73.01
70229;BME280;57617;51.988;5.854;2023-01-30T00:23:31;101260.41;;;7.75;72.40
70229;BME280;57617;51.988;5.854;2023-01-30T00:25:58;101264.56;;;7.77;72.53
70229;BME280;57617;51.988;5.854;2023-01-30T00:28:23;101254.81;;;7.76;73.36
70229;BME280;57617;51.988;5.854;2023-01-30T00:30:50;101242.50;;;7.80;72.49
70229;BME280;57617;51.988;5.854;2023-01-30T00:33:16;101239.78;;;7.80;72.99
70229;BME280;57617;51.988;5.854;2023-01-30T00:35:49;101228.56;;;7.83;73.05
70229;BME280;57617;51.988;5.854;2023-01-30T00:38:16;101229.63;;;7.82;73.06
70229;BME280;57617;51.988;5.854;2023-01-30T00:40:42;101233.78;;;7.85;72.46
70229;BME280;57617;51.988;5.854;2023-01-30T00:43:11;101218.59;;;7.84;72.69
70229;BME280;57617;51.988;5.854;2023-01-30T00:45:55;101218.16;;;7.87;72.88
70229;BME280;57617;51.988;5.854;2023-01-30T00:48:39;101215.44;;;7.87;72.57
70229;BME280;57617;51.988;5.854;2023-01-30T00:51:04;101220.66;;;7.88;74.33
70229;BME280;57617;51.988;5.854;2023-01-30T00:53:29;101208.19;;;7.87;72.86
70229;BME280;57617;51.988;5.854;2023-01-30T00:55:55;101186.53;;;7.87;73.36
70229;BME280;57617;51.988;5.854;2023-01-30T00:58:21;101185.28;;;7.90;73.55
70229;BME280;57617;51.988;5.854;2023-01-30T01:00:46;101184.88;;;7.86;73.03
70229;BME280;57617;51.988;5.854;2023-01-30T01:03:12;101171.97;;;7.88;72.79
70229;BME280;57617;51.988;5.854;2023-01-30T01:05:37;101179.22;;;7.94;73.93
70229;BME280;57617;51.988;5.854;2023-01-30T01:08:03;101170.69;;;7.97;73.53
70229;BME280;57617;51.988;5.854;2023-01-30T01:10:29;101168.59;;;7.99;73.22
70229;BME280;57617;51.988;5.854;2023-01-30T01:12:55;101175.66;;;8.00;73.89
70229;BME280;57617;51.988;5.854;2023-01-30T01:15:21;101182.75;;;8.01;73.87
70229;BME280;57617;51.988;5.854;2023-01-30T01:17:48;101184.19;;;8.04;73.84
70229;BME280;57617;51.988;5.854;2023-01-30T01:20:14;101177.28;;;8.08;73.32
70229;BME280;57617;51.988;5.854;2023-01-30T01:22:39;101177.91;;;8.10;73.73
70229;BME280;57617;51.988;5.854;2023-01-30T01:25:05;101169.56;;;8.11;73.36
70229;BME280;57617;51.988;5.854;2023-01-30T01:27:31;101159.38;;;8.13;73.57
70229;BME280;57617;51.988;5.854;2023-01-30T01:29:56;101159.16;;;8.15;74.11
70229;BME280;57617;51.988;5.854;2023-01-30T01:32:22;101165.16;;;8.17;73.88
70229;BME280;57617;51.988;5.854;2023-01-30T01:34:47;101151.44;;;8.18;74.53
70229;BME280;57617;51.988;5.854;2023-01-30T01:37:12;101145.41;;;8.23;73.57
70229;BME280;57617;51.988;5.854;2023-01-30T01:39:38;101131.06;;;8.22;74.00
70229;BME280;57617;51.988;5.854;2023-01-30T01:42:24;101131.88;;;8.23;74.68
70229;BME280;57617;51.988;5.854;2023-01-30T01:47:44;101124.97;;;8.27;75.02
70229;BME280;57617;51.988;5.854;2023-01-30T01:50:15;101113.13;;;8.21;74.46
70229;BME280;57617;51.988;5.854;2023-01-30T01:52:42;101114.38;;;8.25;74.73
70229;BME280;57617;51.988;5.854;2023-01-30T01:55:08;101110.59;;;8.26;75.15
70229;BME280;57617;51.988;5.854;2023-01-30T01:57:41;101096.88;;;8.28;75.20
70229;BME280;57617;51.988;5.854;2023-01-30T02:00:12;101099.16;;;8.31;74.03
70229;BME280;57617;51.988;5.854;2023-01-30T02:02:56;101099.53;;;8.34;74.57
70229;BME280;57617;51.988;5.854;2023-01-30T02:05:24;101106.38;;;8.37;74.72
70229;BME280;57617;51.988;5.854;2023-01-30T02:08:03;101097.22;;;8.38;75.70
70229;BME280;57617;51.988;5.854;2023-01-30T02:10:44;101096.41;;;8.37;76.46
70229;BME280;57617;51.988;5.854;2023-01-30T02:13:11;101090.75;;;8.39;74.87
70229;BME280;57617;51.988;5.854;2023-01-30T02:15:36;101083.63;;;8.44;74.26
70229;BME280;57617;51.988;5.854;2023-01-30T02:18:02;101087.78;;;8.47;75.22
70229;BME280;57617;51.988;5.854;2023-01-30T02:23:31;101072.09;;;8.55;74.81
70229;BME280;57617;51.988;5.854;2023-01-30T02:32:00;101095.94;;;8.65;75.41
70229;BME280;57617;51.988;5.854;2023-01-30T02:34:48;101100.72;;;8.69;75.55
70229;BME280;57617;51.988;5.854;2023-01-30T02:43:10;101086.66;;;8.79;76.39
70229;BME280;57617;51.988;5.854;2023-01-30T02:45:54;101072.69;;;8.82;76.09
70229;BME280;57617;51.988;5.854;2023-01-30T02:48:28;101076.84;;;8.84;75.40
70229;BME280;57617;51.988;5.854;2023-01-30T02:50:58;101078.28;;;8.87;76.00
70229;BME280;57617;51.988;5.854;2023-01-30T02:53:30;101056.38;;;8.88;75.46
70229;BME280;57617;51.988;5.854;2023-01-30T02:55:56;101064.88;;;8.92;75.57
70229;BME280;57617;51.988;5.854;2023-01-30T02:58:22;101056.75;;;8.92;75.68
70229;BME280;57617;51.988;5.854;2023-01-30T03:01:21;101057.81;;;8.91;76.38
70229;BME280;57617;51.988;5.854;2023-01-30T03:04:04;101050.06;;;8.94;75.85
70229;BME280;57617;51.988;5.854;2023-01-30T03:09:20;101047.94;;;8.96;75.91
70229;BME280;57617;51.988;5.854;2023-01-30T03:11:59;101044.88;;;8.93;75.78
70229;BME280;57617;51.988;5.854;2023-01-30T03:14:38;101043.44;;;8.90;76.36
70229;BME280;57617;51.988;5.854;2023-01-30T03:17:07;101034.88;;;8.93;75.89
70229;BME280;57617;51.988;5.854;2023-01-30T03:19:33;101028.19;;;8.96;76.19
70229;BME280;57617;51.988;5.854;2023-01-30T03:21:59;101031.25;;;8.99;76.73
70229;BME280;57617;51.988;5.854;2023-01-30T03:24:25;101030.41;;;8.99;75.84
70229;BME280;57617;51.988;5.854;2023-01-30T03:27:11;101024.16;;;8.98;76.65
70229;BME280;57617;51.988;5.854;2023-01-30T03:29:37;101034.78;;;9.00;76.11
70229;BME280;57617;51.988;5.854;2023-01-30T03:32:03;101027.94;;;8.97;76.50
70229;BME280;57617;51.988;5.854;2023-01-30T03:34:28;101028.06;;;9.02;76.93
70229;BME280;57617;51.988;5.854;2023-01-30T03:36:54;101020.78;;;9.03;76.51
70229;BME280;57617;51.988;5.854;2023-01-30T03:39:19;101028.06;;;9.02;77.17
70229;BME280;57617;51.988;5.854;2023-01-30T03:41:45;101016.19;;;9.03;76.55
70229;BME280;57617;51.988;5.854;2023-01-30T03:44:10;101020.09;;;9.07;76.14
70229;BME280;57617;51.988;5.854;2023-01-30T03:46:36;101021.16;;;9.06;77.48
70229;BME280;57617;51.988;5.854;2023-01-30T03:49:01;101014.91;;;9.06;76.54
70229;BME280;57617;51.988;5.854;2023-01-30T03:51:26;101025.09;;;9.10;76.16
70229;BME280;57617;51.988;5.854;2023-01-30T03:53:51;101028.84;;;9.09;75.94
70229;BME280;57617;51.988;5.854;2023-01-30T03:56:17;101012.81;;;9.08;76.47
70229;BME280;57617;51.988;5.854;2023-01-30T03:58:42;101020.72;;;9.09;76.98
70229;BME280;57617;51.988;5.854;2023-01-30T04:01:07;101019.66;;;9.10;76.15
70229;BME280;57617;51.988;5.854;2023-01-30T04:03:33;101016.25;;;9.15;76.42
70229;BME280;57617;51.988;5.854;2023-01-30T04:05:58;101020.03;;;9.14;76.21
70229;BME280;57617;51.988;5.854;2023-01-30T04:08:24;101023.19;;;9.11;77.44
70229;BME280;57617;51.988;5.854;2023-01-30T04:10:49;101019.66;;;9.10;76.47
70229;BME280;57617;51.988;5.854;2023-01-30T04:13:15;101026.50;;;9.13;77.26
70229;BME280;57617;51.988;5.854;2023-01-30T04:15:40;101021.91;;;9.13;76.48
70229;BME280;57617;51.988;5.854;2023-01-30T04:18:05;101025.22;;;9.15;76.75
70229;BME280;57617;51.988;5.854;2023-01-30T04:20:30;101022.31;;;9.17;76.62
70229;BME280;57617;51.988;5.854;2023-01-30T04:22:56;101024.53;;;9.20;76.86
70229;BME280;57617;51.988;5.854;2023-01-30T04:25:21;101036.00;;;9.22;76.90
70229;BME280;57617;51.988;5.854;2023-01-30T04:27:46;101029.53;;;9.23;76.97
70229;BME280;57617;51.988;5.854;2023-01-30T04:30:12;101016.56;;;9.25;76.50
70229;BME280;57617;51.988;5.854;2023-01-30T04:32:37;101024.09;;;9.23;77.02
70229;BME280;57617;51.988;5.854;2023-01-30T04:35:03;101024.31;;;9.21;76.21
70229;BME280;57617;51.988;5.854;2023-01-30T04:37:28;101024.91;;;9.23;76.55
70229;BME280;57617;51.988;5.854;2023-01-30T04:39:53;101012.19;;;9.24;76.72
70229;BME280;57617;51.988;5.854;2023-01-30T04:42:19;101008.66;;;9.23;76.85
70229;BME280;57617;51.988;5.854;2023-01-30T04:44:44;101016.34;;;9.26;76.56
70229;BME280;57617;51.988;5.854;2023-01-30T04:47:09;101007.78;;;9.29;76.43
70229;BME280;57617;51.988;5.854;2023-01-30T04:49:34;101013.41;;;9.28;77.13
70229;BME280;57617;51.988;5.854;2023-01-30T04:52:00;101013.63;;;9.26;77.18
70229;BME280;57617;51.988;5.854;2023-01-30T04:54:25;101013.41;;;9.28;76.54
70229;BME280;57617;51.988;5.854;2023-01-30T04:56:50;101022.34;;;9.28;76.69
70229;BME280;57617;51.988;5.854;2023-01-30T04:59:16;101022.34;;;9.28;76.43
70229;BME280;57617;51.988;5.854;2023-01-30T05:01:41;101015.91;;;9.29;76.92
70229;BME280;57617;51.988;5.854;2023-01-30T05:04:07;101021.19;;;9.24;76.53
70229;BME280;57617;51.988;5.854;2023-01-30T05:06:33;101019.19;;;9.31;76.31
70229;BME280;57617;51.988;5.854;2023-01-30T05:08:59;101022.97;;;9.30;76.89
70229;BME280;57617;51.988;5.854;2023-01-30T05:11:26;101027.56;;;9.30;76.30
70229;BME280;57617;51.988;5.854;2023-01-30T05:13:52;101024.41;;;9.33;76.45
70229;BME280;57617;51.988;5.854;2023-01-30T05:16:19;101007.91;;;9.34;76.87
70229;BME280;57617;51.988;5.854;2023-01-30T05:18:45;101018.06;;;9.39;76.55
70229;BME280;57617;51.988;5.854;2023-01-30T05:21:21;101019.78;;;9.33;76.51
70229;BME280;57617;51.988;5.854;2023-01-30T05:23:49;101014.63;;;9.32;76.50
70229;BME280;57617;51.988;5.854;2023-01-30T05:26:15;101015.00;;;9.35;76.27
70229;BME280;57617;51.988;5.854;2023-01-30T05:28:42;101010.22;;;9.31;76.59
70229;BME280;57617;51.988;5.854;2023-01-30T05:31:10;101014.84;;;9.30;76.60
70229;BME280;57617;51.988;5.854;2023-01-30T05:33:36;101016.03;;;9.34;76.71
70229;BME280;57617;51.988;5.854;2023-01-30T05:36:02;101013.94;;;9.36;76.37
70229;BME280;57617;51.988;5.854;2023-01-30T05:38:28;101015.00;;;9.35;76.39
70229;BME280;57617;51.988;5.854;2023-01-30T05:40:57;101025.00;;;9.35;76.46
70229;BME280;57617;51.988;5.854;2023-01-30T05:43:23;101023.78;;;9.31;76.48
70229;BME280;57617;51.988;5.854;2023-01-30T05:45:56;101025.22;;;9.33;76.27
70229;BME280;57617;51.988;5.854;2023-01-30T05:48:22;101039.97;;;9.37;76.64
70229;BME280;57617;51.988;5.854;2023-01-30T05:50:55;101036.81;;;9.40;76.54
70229;BME280;57617;51.988;5.854;2023-01-30T05:53:22;101047.03;;;9.38;76.40
70229;BME280;57617;51.988;5.854;2023-01-30T05:55:59;101022.59;;;9.27;76.05
70229;BME280;57617;51.988;5.854;2023-01-30T05:58:25;101035.84;;;9.35;75.86
70229;BME280;57617;51.988;5.854;2023-01-30T06:00:51;101017.56;;;9.30;76.04
70229;BME280;57617;51.988;5.854;2023-01-30T06:03:17;101028.53;;;9.35;75.93
70229;BME280;57617;51.988;5.854;2023-01-30T06:05:42;101034.19;;;9.34;75.23
70229;BME280;57617;51.988;5.854;2023-01-30T06:08:08;101033.34;;;9.33;75.68
70229;BME280;57617;51.988;5.854;2023-01-30T06:10:36;101032.16;;;9.29;75.38
70229;BME280;57617;51.988;5.854;2023-01-30T06:13:02;101033.72;;;9.19;75.00
70229;BME280;57617;51.988;5.854;2023-01-30T06:15:27;101043.16;;;9.16;74.33
70229;BME280;57617;51.988;5.854;2023-01-30T06:17:52;101045.91;;;9.10;74.46
70229;BME280;57617;51.988;5.854;2023-01-30T06:20:19;101046.97;;;9.09;74.49
70229;BME280;57617;51.988;5.854;2023-01-30T06:22:44;101047.81;;;9.09;73.87
70229;BME280;57617;51.988;5.854;2023-01-30T06:25:09;101050.13;;;9.06;73.36
70229;BME280;57617;51.988;5.854;2023-01-30T06:27:35;101050.38;;;9.04;73.92
70229;BME280;57617;51.988;5.854;2023-01-30T06:30:00;101064.06;;;9.09;73.69
70229;BME280;57617;51.988;5.854;2023-01-30T06:32:26;101073.69;;;9.05;73.29
70229;BME280;57617;51.988;5.854;2023-01-30T06:34:51;101080.41;;;9.03;74.06
70229;BME280;57617;51.988;5.854;2023-01-30T06:37:16;101073.06;;;9.03;73.62
70229;BME280;57617;51.988;5.854;2023-01-30T06:39:41;101083.53;;;9.00;72.86
70229;BME280;57617;51.988;5.854;2023-01-30T06:42:07;101062.72;;;9.00;73.52
70229;BME280;57617;51.988;5.854;2023-01-30T06:44:32;101062.72;;;9.00;73.33
70229;BME280;57617;51.988;5.854;2023-01-30T06:46:57;101059.00;;;8.95;73.32
70229;BME280;57617;51.988;5.854;2023-01-30T06:49:22;101075.72;;;8.92;72.60
70229;BME280;57617;51.988;5.854;2023-01-30T06:51:48;101061.72;;;8.95;73.35
70229;BME280;57617;51.988;5.854;2023-01-30T06:54:13;101065.69;;;8.92;72.98
70229;BME280;57617;51.988;5.854;2023-01-30T06:56:38;101071.09;;;8.92;72.71
70229;BME280;57617;51.988;5.854;2023-01-30T06:59:03;101078.66;;;8.90;72.37
70229;BME280;57617;51.988;5.854;2023-01-30T07:01:29;101080.13;;;8.86;72.22
70229;BME280;57617;51.988;5.854;2023-01-30T07:03:54;101090.97;;;8.86;72.18
70229;BME280;57617;51.988;5.854;2023-01-30T07:06:19;101091.91;;;8.74;71.89
70229;BME280;57617;51.988;5.854;2023-01-30T07:08:45;101092.28;;;8.77;71.82
70229;BME280;57617;51.988;5.854;2023-01-30T07:11:10;101110.22;;;8.78;72.56
70229;BME280;57617;51.988;5.854;2023-01-30T07:13:35;101106.91;;;8.76;72.10
70229;BME280;57617;51.988;5.854;2023-01-30T07:16:01;101105.25;;;8.75;72.25
70229;BME280;57617;51.988;5.854;2023-01-30T07:18:26;101102.97;;;8.72;72.04
70229;BME280;57617;51.988;5.854;2023-01-30T07:20:51;101107.78;;;8.70;71.61
70229;BME280;57617;51.988;5.854;2023-01-30T07:23:17;101116.13;;;8.69;71.68
70229;BME280;57617;51.988;5.854;2023-01-30T07:25:42;101117.38;;;8.66;71.63
70229;BME280;57617;51.988;5.854;2023-01-30T07:28:08;101107.06;;;8.57;71.64
70229;BME280;57617;51.988;5.854;2023-01-30T07:30:34;101122.84;;;8.60;71.45
70229;BME280;57617;51.988;5.854;2023-01-30T07:33:00;101126.19;;;8.62;71.80
70229;BME280;57617;51.988;5.854;2023-01-30T07:35:28;101105.16;;;8.57;71.92
70229;BME280;57617;51.988;5.854;2023-01-30T07:37:54;101112.88;;;8.60;71.20
70229;BME280;57617;51.988;5.854;2023-01-30T07:40:20;101119.94;;;8.61;71.89
70229;BME280;57617;51.988;5.854;2023-01-30T07:43:03;101121.66;;;8.56;70.66
70229;BME280;57617;51.988;5.854;2023-01-30T07:45:43;101118.59;;;8.46;70.83
70229;BME280;57617;51.988;5.854;2023-01-30T07:48:11;101122.75;;;8.48;71.23
70229;BME280;57617;51.988;5.854;2023-01-30T07:50:37;101132.09;;;8.52;71.65
70229;BME280;57617;51.988;5.854;2023-01-30T07:53:03;101127.50;;;8.53;70.77
70229;BME280;57617;51.988;5.854;2023-01-30T07:55:29;101123.53;;;8.55;71.63
70229;BME280;57617;51.988;5.854;2023-01-30T07:57:54;101126.81;;;8.57;71.60
70229;BME280;57617;51.988;5.854;2023-01-30T08:00:20;101115.41;;;8.55;70.38
70229;BME280;57617;51.988;5.854;2023-01-30T08:02:45;101119.59;;;8.51;70.68
70229;BME280;57617;51.988;5.854;2023-01-30T08:05:10;101127.53;;;8.46;71.39
70229;BME280;57617;51.988;5.854;2023-01-30T08:07:35;101122.38;;;8.45;70.63
70229;BME280;57617;51.988;5.854;2023-01-30T08:10:01;101131.31;;;8.45;69.13
70229;BME280;57617;51.988;5.854;2023-01-30T08:12:26;101129.44;;;8.46;69.96
70229;BME280;57617;51.988;5.854;2023-01-30T08:14:51;101138.16;;;8.48;70.24
70229;BME280;57617;51.988;5.854;2023-01-30T08:17:17;101132.53;;;8.49;69.19
70229;BME280;57617;51.988;5.854;2023-01-30T08:19:42;101144.59;;;8.53;70.21
70229;BME280;57617;51.988;5.854;2023-01-30T08:22:07;101141.06;;;8.46;68.59
70229;BME280;57617;51.988;5.854;2023-01-30T08:24:32;101124.84;;;8.46;69.56
70229;BME280;57617;51.988;5.854;2023-01-30T08:26:58;101140.84;;;8.48;69.88
70229;BME280;57617;51.988;5.854;2023-01-30T08:29:24;101153.69;;;8.59;69.74
70229;BME280;57617;51.988;5.854;2023-01-30T08:31:49;101152.47;;;8.55;68.82
70229;BME280;57617;51.988;5.854;2023-01-30T08:34:15;101173.47;;;8.59;69.20
70229;BME280;57617;51.988;5.854;2023-01-30T08:36:40;101177.63;;;8.62;69.24
70229;BME280;57617;51.988;5.854;2023-01-30T08:39:05;101175.69;;;8.69;68.65
70229;BME280;57617;51.988;5.854;2023-01-30T08:41:31;101170.06;;;8.70;68.71
70229;BME280;57617;51.988;5.854;2023-01-30T08:43:56;101179.84;;;8.71;69.10
70229;BME280;57617;51.988;5.854;2023-01-30T08:46:21;101159.41;;;8.75;68.27
70229;BME280;57617;51.988;5.854;2023-01-30T08:48:47;101158.56;;;8.75;67.94
70229;BME280;57617;51.988;5.854;2023-01-30T08:51:13;101162.44;;;8.85;68.13
70229;BME280;57617;51.988;5.854;2023-01-30T08:53:38;101164.56;;;8.83;67.51
70229;BME280;57617;51.988;5.854;2023-01-30T08:56:03;101165.09;;;8.92;67.77
70229;BME280;57617;51.988;5.854;2023-01-30T08:58:29;101174.28;;;8.91;66.83
70229;BME280;57617;51.988;5.854;2023-01-30T09:00:54;101173.03;;;8.93;66.71
70229;BME280;57617;51.988;5.854;2023-01-30T09:03:19;101193.56;;;9.01;67.37
70229;BME280;57617;51.988;5.854;2023-01-30T09:05:45;101186.81;;;9.10;67.06
70229;BME280;57617;51.988;5.854;2023-01-30T09:08:11;101184.66;;;9.18;67.21
70229;BME280;57617;51.988;5.854;2023-01-30T09:10:36;101199.00;;;9.25;66.49
70229;BME280;57617;51.988;5.854;2023-01-30T09:13:02;101199.59;;;9.27;67.05
70229;BME280;57617;51.988;5.854;2023-01-30T09:15:29;101199.00;;;9.25;65.33
70229;BME280;57617;51.988;5.854;2023-01-30T09:17:55;101217.34;;;9.23;65.16
70229;BME280;57617;51.988;5.854;2023-01-30T09:20:20;101212.75;;;9.24;67.20
70229;BME280;57617;51.988;5.854;2023-01-30T09:22:45;101210.25;;;9.22;65.53
70229;BME280;57617;51.988;5.854;2023-01-30T09:25:11;101211.47;;;9.26;65.54
70229;BME280;57617;51.988;5.854;2023-01-30T09:27:36;101215.69;;;9.22;65.78
70229;BME280;57617;51.988;5.854;2023-01-30T09:30:03;101218.78;;;9.26;66.11
70229;BME280;57617;51.988;5.854;2023-01-30T09:32:29;101205.31;;;9.19;65.92
70229;BME280;57617;51.988;5.854;2023-01-30T09:34:54;101213.09;;;9.34;66.30
70229;BME280;57617;51.988;5.854;2023-01-30T09:37:19;101215.56;;;9.35;65.67
70229;BME280;57617;51.988;5.854;2023-01-30T09:39:45;101224.81;;;9.28;64.33
70229;BME280;57617;51.988;5.854;2023-01-30T09:47:55;101226.84;;;9.32;64.20
70229;BME280;57617;51.988;5.854;2023-01-30T09:53:23;101225.97;;;9.38;65.56
70229;BME280;57617;51.988;5.854;2023-01-30T09:55:51;101229.13;;;9.35;64.51
70229;BME280;57617;51.988;5.854;2023-01-30T09:58:18;101227.22;;;9.36;64.95
70229;BME280;57617;51.988;5.854;2023-01-30T10:00:45;101244.34;;;9.36;64.66
70229;BME280;57617;51.988;5.854;2023-01-30T10:03:14;101238.44;;;9.39;65.17
70229;BME280;57617;51.988;5.854;2023-01-30T10:06:00;101237.19;;;9.42;65.33
70229;BME280;57617;51.988;5.854;2023-01-30T10:11:00;101232.38;;;9.44;65.09
70229;BME280;57617;51.988;5.854;2023-01-30T10:16:46;101241.66;;;9.54;63.83
70229;BME280;57617;51.988;5.854;2023-01-30T10:27:18;101248.13;;;9.53;63.25
70229;BME280;57617;51.988;5.854;2023-01-30T10:29:50;101260.63;;;9.54;64.53
70229;BME280;57617;51.988;5.854;2023-01-30T10:32:20;101258.91;;;9.60;64.44
70229;BME280;57617;51.988;5.854;2023-01-30T10:34:53;101256.63;;;9.57;64.42
70229;BME280;57617;51.988;5.854;2023-01-30T10:37:34;101268.34;;;9.57;64.86
70229;BME280;57617;51.988;5.854;2023-01-30T10:40:17;101274.81;;;9.56;64.30
70229;BME280;57617;51.988;5.854;2023-01-30T10:42:49;101279.94;;;9.64;64.99
70229;BME280;57617;51.988;5.854;2023-01-30T10:45:33;101264.41;;;9.53;63.98
70229;BME280;57617;51.988;5.854;2023-01-30T10:48:15;101273.69;;;9.64;64.47
70229;BME280;57617;51.988;5.854;2023-01-30T10:50:55;101270.31;;;9.68;64.66
70229;BME280;57617;51.988;5.854;2023-01-30T10:53:33;101260.69;;;9.72;64.03
70229;BME280;57617;51.988;5.854;2023-01-30T10:56:14;101262.31;;;9.73;64.50
70229;BME280;57617;51.988;5.854;2023-01-30T10:58:47;101258.41;;;9.69;63.46
70229;BME280;57617;51.988;5.854;2023-01-30T11:01:24;101259.06;;;9.65;63.55
70229;BME280;57617;51.988;5.854;2023-01-30T11:03:56;101265.94;;;9.67;63.86
70229;BME280;57617;51.988;5.854;2023-01-30T11:06:24;101265.88;;;9.74;64.18
70229;BME280;57617;51.988;5.854;2023-01-30T11:08:51;101265.03;;;9.73;63.99
70229;BME280;57617;51.988;5.854;2023-01-30T11:11:28;101269.25;;;9.69;63.05
70229;BME280;57617;51.988;5.854;2023-01-30T11:14:03;101273.66;;;9.70;63.63
70229;BME280;57617;51.988;5.854;2023-01-30T11:16:29;101278.47;;;9.86;64.40
70229;BME280;57617;51.988;5.854;2023-01-30T11:18:55;101275.16;;;10.02;64.31
70229;BME280;57617;51.988;5.854;2023-01-30T11:21:25;101278.88;;;10.08;63.55
70229;BME280;57617;51.988;5.854;2023-01-30T11:23:53;101283.81;;;10.17;63.43
70229;BME280;57617;51.988;5.854;2023-01-30T11:26:20;101275.66;;;10.17;62.86
70229;BME280;57617;51.988;5.854;2023-01-30T11:28:46;101275.66;;;10.17;62.86
70229;BME280;57617;51.988;5.854;2023-01-30T11:31:20;101263.53;;;10.20;61.25
70229;BME280;57617;51.988;5.854;2023-01-30T11:33:59;101275.97;;;10.27;61.50
70229;BME280;57617;51.988;5.854;2023-01-30T11:36:31;101261.69;;;10.32;62.04
70229;BME280;57617;51.988;5.854;2023-01-30T11:39:02;101277.91;;;10.38;61.75
70229;BME280;57617;51.988;5.854;2023-01-30T11:41:29;101272.53;;;10.32;60.94
70229;BME280;57617;51.988;5.854;2023-01-30T11:44:00;101257.75;;;10.28;61.07
70229;BME280;57617;51.988;5.854;2023-01-30T11:46:29;101261.63;;;10.38;62.07
70229;BME280;57617;51.988;5.854;2023-01-30T11:48:59;101259.81;;;10.32;60.71
70229;BME280;57617;51.988;5.854;2023-01-30T11:51:26;101272.00;;;10.41;61.48
70229;BME280;57617;51.988;5.854;2023-01-30T11:54:00;101268.41;;;10.47;59.88
70229;BME280;57617;51.988;5.854;2023-01-30T11:59:30;101286.78;;;10.63;58.68
70229;BME280;57617;51.988;5.854;2023-01-30T12:02:18;101281.63;;;10.73;58.97
70229;BME280;57617;51.988;5.854;2023-01-30T12:04:45;101276.69;;;10.82;59.60
70229;BME280;57617;51.988;5.854;2023-01-30T12:07:24;101288.50;;;10.87;58.23
70229;BME280;57617;51.988;5.854;2023-01-30T12:09:50;101287.59;;;10.93;59.86
70229;BME280;57617;51.988;5.854;2023-01-30T12:12:42;101283.28;;;10.74;56.97
70229;BME280;57617;51.988;5.854;2023-01-30T12:15:21;101290.81;;;10.72;58.65
70229;BME280;57617;51.988;5.854;2023-01-30T12:20:22;101292.50;;;10.73;58.91
70229;BME280;57617;51.988;5.854;2023-01-30T12:23:17;101291.88;;;10.71;58.31
70229;BME280;57617;51.988;5.854;2023-01-30T12:33:54;101287.91;;;10.56;59.09
70229;BME280;57617;51.988;5.854;2023-01-30T12:39:39;101308.72;;;10.62;58.13
70229;BME280;57617;51.988;5.854;2023-01-30T12:50:17;101293.44;;;10.49;58.39
70229;BME280;57617;51.988;5.854;2023-01-30T12:53:16;101316.13;;;10.55;57.24
70229;BME280;57617;51.988;5.854;2023-01-30T12:58:55;101321.94;;;10.58;57.70
70229;BME280;57617;51.988;5.854;2023-01-30T13:15:20;101343.31;;;10.55;57.93
70229;BME280;57617;51.988;5.854;2023-01-30T13:23:28;101342.75;;;10.46;57.17
70229;BME280;57617;51.988;5.854;2023-01-30T13:26:09;101334.59;;;10.46;57.67
70229;BME280;57617;51.988;5.854;2023-01-30T13:28:39;101359.81;;;10.35;57.54
70229;BME280;57617;51.988;5.854;2023-01-30T13:31:09;101365.44;;;10.34;57.74
70229;BME280;57617;51.988;5.854;2023-01-30T13:33:38;101366.88;;;10.36;58.24
70229;BME280;57617;51.988;5.854;2023-01-30T13:36:13;101373.75;;;10.39;58.37
70229;BME280;57617;51.988;5.854;2023-01-30T13:38:48;101367.00;;;10.30;57.99
70229;BME280;57617;51.988;5.854;2023-01-30T13:41:17;101373.59;;;10.34;57.66
70229;BME280;57617;51.988;5.854;2023-01-30T13:43:49;101386.75;;;10.37;57.17
70229;BME280;57617;51.988;5.854;2023-01-30T13:46:24;101385.75;;;10.31;57.49
70229;BME280;57617;51.988;5.854;2023-01-30T13:49:00;101392.22;;;10.30;58.06
70229;BME280;57617;51.988;5.854;2023-01-30T13:51:44;101389.72;;;10.29;57.96
70229;BME280;57617;51.988;5.854;2023-01-30T13:54:15;101407.31;;;10.26;58.19
70229;BME280;57617;51.988;5.854;2023-01-30T13:56:53;101414.78;;;10.31;57.77
70229;BME280;57617;51.988;5.854;2023-01-30T13:59:29;101425.59;;;10.37;58.04
70229;BME280;57617;51.988;5.854;2023-01-30T14:09:42;101433.28;;;10.40;58.07
70229;BME280;57617;51.988;5.854;2023-01-30T14:12:21;101433.97;;;10.36;57.33
70229;BME280;57617;51.988;5.854;2023-01-30T14:17:26;101444.75;;;10.42;58.16
70229;BME280;57617;51.988;5.854;2023-01-30T14:22:31;101435.94;;;10.47;57.18
70229;BME280;57617;51.988;5.854;2023-01-30T14:27:54;101452.59;;;10.50;58.50
70229;BME280;57617;51.988;5.854;2023-01-30T14:30:55;101461.59;;;10.51;57.65
70229;BME280;57617;51.988;5.854;2023-01-30T14:38:34;101466.41;;;10.49;58.51
70229;BME280;57617;51.988;5.854;2023-01-30T14:48:58;101493.03;;;10.40;57.72
70229;BME280;57617;51.988;5.854;2023-01-30T14:56:49;101503.56;;;10.30;58.11
70229;BME280;57617;51.988;5.854;2023-01-30T14:59:46;101513.09;;;10.39;58.96
70229;BME280;57617;51.988;5.854;2023-01-30T15:10:10;101536.09;;;10.37;58.97
70229;BME280;57617;51.988;5.854;2023-01-30T15:13:00;101543.00;;;10.33;59.00
70229;BME280;57617;51.988;5.854;2023-01-30T15:24:20;101549.78;;;10.24;59.44
70229;BME280;57617;51.988;5.854;2023-01-30T15:27:00;101560.84;;;10.22;59.52
70229;BME280;57617;51.988;5.854;2023-01-30T15:29:44;101577.56;;;10.19;59.31